Time;durP1;ratioP1;P1;durP2;ratioP2;P2;SDS_P1;SDS_P2;PMS_P1;PMS_P2;Temp;Humidity;BMP_temperature;BMP_pressure;BME280_temperature;BME280_humidity;BME280_pressure;Samples;Min_cycle;Max_cycle;Signal;HPM_P1;HPM_P2
2024/02/16 00:01:21;;;;;;;2.53;2.13;;;23.30;45.80;;;;;;5092804;28;20240;-61
2024/02/16 00:03:48;;;;;;;3.88;2.53;;;23.30;45.90;;;;;;5092183;28;20218;-61
2024/02/16 00:06:16;;;;;;;3.63;2.30;;;23.30;45.90;;;;;;5092288;28;20581;-62
2024/02/16 00:08:43;;;;;;;3.28;2.38;;;23.30;45.80;;;;;;5092957;28;20633;-63
2024/02/16 00:11:10;;;;;;;5.05;2.50;;;23.30;45.80;;;;;;5092816;28;20218;-62
2024/02/16 00:13:37;;;;;;;3.33;2.28;;;23.30;45.80;;;;;;5092280;28;20278;-61
2024/02/16 00:16:04;;;;;;;2.70;2.20;;;23.30;45.80;;;;;;5092766;28;20657;-62
2024/02/16 00:18:31;;;;;;;5.82;2.35;;;23.20;45.70;;;;;;5092282;28;20222;-61
2024/02/16 00:20:58;;;;;;;2.95;2.20;;;23.20;45.60;;;;;;5092133;28;20183;-61
2024/02/16 00:23:26;;;;;;;3.08;2.15;;;23.30;45.70;;;;;;5092296;28;20214;-62
2024/02/16 00:25:53;;;;;;;3.67;2.40;;;23.30;45.70;;;;;;5092295;28;20276;-61
2024/02/16 00:28:20;;;;;;;2.72;2.20;;;23.30;45.70;;;;;;5091745;28;20222;-61
2024/02/16 00:30:47;;;;;;;3.28;2.35;;;23.30;45.80;;;;;;5092673;28;20276;-62
2024/02/16 00:33:13;;;;;;;3.47;2.30;;;23.30;45.80;;;;;;5092520;28;20309;-62
2024/02/16 00:35:40;;;;;;;4.18;2.35;;;23.20;45.70;;;;;;5092320;28;20198;-61
2024/02/16 00:38:07;;;;;;;4.32;2.38;;;23.30;45.70;;;;;;5092194;28;20214;-62
2024/02/16 00:40:35;;;;;;;3.33;2.30;;;23.30;45.70;;;;;;5092322;28;20281;-61
2024/02/16 00:43:03;;;;;;;4.35;2.25;;;23.30;45.70;;;;;;5091554;28;20268;-61
2024/02/16 00:45:30;;;;;;;2.63;2.05;;;23.20;45.60;;;;;;5092206;28;20193;-62
2024/02/16 00:47:57;;;;;;;4.40;2.50;;;23.20;45.60;;;;;;5092603;28;20300;-62
2024/02/16 00:50:24;;;;;;;4.38;2.10;;;23.20;45.60;;;;;;5092233;28;20182;-63
2024/02/16 00:52:50;;;;;;;3.45;1.98;;;23.20;45.60;;;;;;5091989;28;20213;-62
2024/02/16 00:55:17;;;;;;;5.68;2.40;;;23.20;45.70;;;;;;5092289;28;20237;-61
2024/02/16 00:57:46;;;;;;;4.22;2.70;;;23.20;45.60;;;;;;5092105;28;20695;-62
2024/02/16 01:00:15;;;;;;;4.13;2.40;;;23.20;45.60;;;;;;5092183;28;20193;-61
2024/02/16 01:02:42;;;;;;;3.17;2.20;;;23.20;45.60;;;;;;5092170;28;20210;-62
2024/02/16 01:05:10;;;;;;;3.25;2.30;;;23.20;45.70;;;;;;5089496;28;20300;-61
2024/02/16 01:07:37;;;;;;;2.92;2.35;;;23.20;45.60;;;;;;5086181;28;20600;-62
2024/02/16 01:10:04;;;;;;;2.70;2.10;;;23.20;45.60;;;;;;5090648;28;20194;-62
2024/02/16 01:12:31;;;;;;;3.30;2.03;;;23.20;45.70;;;;;;5090122;28;20638;-62
2024/02/16 01:15:00;;;;;;;3.83;2.05;;;23.20;45.70;;;;;;5091793;28;20190;-61
2024/02/16 01:17:27;;;;;;;3.28;2.08;;;23.20;45.70;;;;;;5080492;28;20230;-61
2024/02/16 01:19:54;;;;;;;4.50;2.47;;;23.20;45.60;;;;;;5075042;28;20197;-63
2024/02/16 01:22:21;;;;;;;3.83;2.40;;;23.20;45.70;;;;;;5093305;28;20300;-61
2024/02/16 01:24:47;;;;;;;4.10;2.72;;;23.20;45.60;;;;;;5095018;28;20214;-62
2024/02/16 01:27:14;;;;;;;3.63;2.45;;;23.20;45.60;;;;;;5096173;28;20305;-61
2024/02/16 01:29:41;;;;;;;2.80;2.08;;;23.20;46.40;;;;;;5095324;28;20235;-61
2024/02/16 01:32:09;;;;;;;4.43;2.38;;;23.20;45.60;;;;;;5095770;28;20245;-62
2024/02/16 01:34:37;;;;;;;3.03;2.40;;;23.20;45.60;;;;;;5095593;28;20286;-62
2024/02/16 01:37:04;;;;;;;3.58;2.33;;;23.20;45.70;;;;;;5095740;28;20213;-62
2024/02/16 01:39:30;;;;;;;4.30;2.10;;;23.20;46.40;;;;;;5095827;28;20196;-65
2024/02/16 01:41:57;;;;;;;6.30;2.40;;;23.20;45.70;;;;;;5095535;28;20304;-63
2024/02/16 01:44:24;;;;;;;4.65;2.45;;;23.20;45.70;;;;;;5094719;28;20695;-61
2024/02/16 01:46:51;;;;;;;3.92;2.30;;;23.20;46.40;;;;;;5095342;28;20220;-64
2024/02/16 01:49:19;;;;;;;3.65;2.33;;;23.20;45.70;;;;;;5095511;28;20640;-61
2024/02/16 01:51:47;;;;;;;5.30;2.53;;;23.20;45.60;;;;;;5095063;28;20213;-61
2024/02/16 01:54:14;;;;;;;4.03;2.22;;;23.20;45.60;;;;;;5094951;28;20189;-62
2024/02/16 01:56:41;;;;;;;5.03;2.45;;;23.20;45.70;;;;;;5095378;28;20237;-64
2024/02/16 01:59:08;;;;;;;3.85;2.05;;;23.20;45.70;;;;;;5095192;28;20193;-62
2024/02/16 02:01:35;;;;;;;3.42;2.45;;;23.20;45.70;;;;;;5094985;28;20647;-62
2024/02/16 02:04:02;;;;;;;5.22;2.63;;;23.20;46.40;;;;;;5094533;28;20713;-62
2024/02/16 02:06:31;;;;;;;4.80;2.60;;;23.20;45.70;;;;;;5087829;28;20214;-61
2024/02/16 02:08:57;;;;;;;3.33;2.45;;;23.20;45.70;;;;;;5094369;28;20220;-61
2024/02/16 02:11:24;;;;;;;4.32;2.25;;;23.20;45.70;;;;;;5093636;28;20786;-61
2024/02/16 02:13:51;;;;;;;4.20;2.15;;;23.20;45.70;;;;;;5093794;28;20778;-61
2024/02/16 02:16:19;;;;;;;2.63;1.85;;;23.20;45.80;;;;;;5093911;28;20277;-62
2024/02/16 02:18:46;;;;;;;4.25;2.15;;;23.20;45.80;;;;;;5094359;28;20182;-62
2024/02/16 02:21:14;;;;;;;4.10;2.22;;;23.10;46.40;;;;;;5094193;28;20237;-61
2024/02/16 02:23:42;;;;;;;4.10;2.15;;;23.20;45.80;;;;;;5093292;28;20620;-61
2024/02/16 02:26:09;;;;;;;2.45;1.88;;;23.20;45.80;;;;;;5093998;28;20193;-62
2024/02/16 02:28:36;;;;;;;3.00;1.83;;;23.20;45.80;;;;;;5094081;28;20232;-62
2024/02/16 02:31:03;;;;;;;3.72;2.15;;;23.20;45.80;;;;;;5094621;28;20285;-62
2024/02/16 02:33:30;;;;;;;2.67;1.70;;;23.20;45.80;;;;;;5094929;28;20198;-62
2024/02/16 02:35:56;;;;;;;4.30;2.10;;;23.20;45.80;;;;;;5093763;28;20630;-62
2024/02/16 02:38:23;;;;;;;2.45;1.85;;;23.10;45.70;;;;;;5094446;28;20214;-63
2024/02/16 02:40:51;;;;;;;2.22;1.42;;;23.10;45.70;;;;;;5094280;28;20197;-62
2024/02/16 02:43:19;;;;;;;2.50;1.30;;;23.10;46.40;;;;;;5094155;28;20214;-62
2024/02/16 02:45:46;;;;;;;2.30;1.55;;;23.10;45.70;;;;;;5094236;28;20190;-62
2024/02/16 02:48:13;;;;;;;2.08;1.60;;;23.10;45.80;;;;;;5094415;28;20304;-62
2024/02/16 02:50:39;;;;;;;2.50;1.48;;;23.10;45.80;;;;;;5094039;28;20715;-62
2024/02/16 02:53:06;;;;;;;3.72;1.70;;;23.10;45.70;;;;;;5094191;28;20224;-62
2024/02/16 02:55:33;;;;;;;3.30;1.58;;;23.10;45.80;;;;;;5094060;28;20285;-62
2024/02/16 02:58:01;;;;;;;2.15;1.50;;;23.10;45.80;;;;;;5094454;28;20320;-60
2024/02/16 03:00:29;;;;;;;1.90;1.42;;;23.10;45.80;;;;;;5093962;28;20209;-62
2024/02/16 03:02:56;;;;;;;2.65;1.50;;;23.10;45.80;;;;;;5094255;28;20210;-61
2024/02/16 03:05:23;;;;;;;1.98;1.20;;;23.10;45.80;;;;;;5090647;28;20214;-61
2024/02/16 03:07:51;;;;;;;2.67;1.40;;;23.10;46.50;;;;;;5089174;28;20310;-62
2024/02/16 03:10:21;;;;;;;2.38;1.33;;;23.00;45.70;;;;;;5093252;28;20235;-62
2024/02/16 03:12:49;;;;;;;2.67;1.15;;;23.10;45.80;;;;;;5093351;28;20218;-62
2024/02/16 03:15:18;;;;;;;2.28;1.23;;;23.10;45.90;;;;;;5093436;28;20243;-61
2024/02/16 03:17:45;;;;;;;2.30;1.17;;;23.00;45.70;;;;;;5093634;28;20214;-61
2024/02/16 03:20:12;;;;;;;1.60;1.05;;;23.00;45.70;;;;;;5093480;28;20569;-61
2024/02/16 03:22:39;;;;;;;1.70;1.33;;;23.10;45.90;;;;;;5072357;28;20309;-62
2024/02/16 03:25:06;;;;;;;1.60;1.02;;;23.10;45.80;;;;;;5072946;28;20214;-62
2024/02/16 03:27:33;;;;;;;2.25;1.25;;;23.10;45.70;;;;;;5073244;28;20297;-62
2024/02/16 03:30:00;;;;;;;2.42;1.25;;;23.10;45.70;;;;;;5072485;28;20230;-61
2024/02/16 03:32:28;;;;;;;1.60;1.20;;;23.00;45.60;;;;;;5073128;28;20775;-62
2024/02/16 03:34:58;;;;;;;3.42;1.02;;;23.00;45.70;;;;;;5072767;28;20273;-63
2024/02/16 03:37:25;;;;;;;2.30;1.17;;;23.00;45.60;;;;;;5071971;28;20223;-64
2024/02/16 03:39:52;;;;;;;2.10;0.90;;;23.00;45.60;;;;;;5073038;28;20186;-61
2024/02/16 03:42:19;;;;;;;1.45;0.90;;;23.00;45.60;;;;;;5072420;28;20235;-61
2024/02/16 03:44:46;;;;;;;2.47;1.10;;;23.00;45.60;;;;;;5073015;28;20367;-61
2024/02/16 03:47:13;;;;;;;1.00;0.90;;;23.00;45.60;;;;;;5072785;28;20297;-62
2024/02/16 03:49:43;;;;;;;1.50;0.98;;;23.00;45.60;;;;;;5072726;28;20198;-61
2024/02/16 03:52:10;;;;;;;1.45;0.90;;;23.00;45.60;;;;;;5072594;28;20759;-64
2024/02/16 03:54:37;;;;;;;1.35;1.00;;;23.10;45.70;;;;;;5072453;28;20281;-65
2024/02/16 03:57:08;;;;;;;1.65;0.90;;;23.00;45.60;;;;;;5072406;28;20309;-62
2024/02/16 03:59:35;;;;;;;2.45;1.08;;;23.00;45.60;;;;;;5072783;28;20194;-61
2024/02/16 04:02:02;;;;;;;2.30;1.10;;;23.00;45.60;;;;;;5072422;28;20214;-61
2024/02/16 04:04:29;;;;;;;1.75;0.90;;;23.00;45.60;;;;;;5072272;28;20301;-61
2024/02/16 04:06:57;;;;;;;1.83;0.90;;;23.00;45.60;;;;;;5082219;28;20304;-61
2024/02/16 04:09:24;;;;;;;2.05;1.00;;;23.00;45.60;;;;;;5092064;28;20204;-61
2024/02/16 04:11:51;;;;;;;1.30;0.88;;;23.00;45.60;;;;;;5092227;28;20320;-61
2024/02/16 04:14:18;;;;;;;1.48;0.90;;;23.00;45.60;;;;;;5092269;28;20727;-62
2024/02/16 04:16:45;;;;;;;1.33;0.93;;;23.00;45.60;;;;;;5092374;28;20218;-61
2024/02/16 04:19:12;;;;;;;1.65;0.80;;;23.00;45.60;;;;;;5091933;28;20673;-61
2024/02/16 04:21:38;;;;;;;1.98;0.98;;;23.00;45.60;;;;;;5091356;28;20611;-62
2024/02/16 04:24:07;;;;;;;1.40;0.80;;;23.00;45.60;;;;;;5090801;28;20618;-61
2024/02/16 04:26:34;;;;;;;2.80;0.95;;;23.00;45.90;;;;;;5092106;28;20224;-63
2024/02/16 04:29:01;;;;;;;1.02;0.60;;;22.90;45.50;;;;;;5092289;28;20669;-62
2024/02/16 04:31:28;;;;;;;1.48;0.80;;;22.90;45.50;;;;;;5092747;28;20716;-62
2024/02/16 04:33:55;;;;;;;1.25;0.70;;;22.90;45.50;;;;;;5092300;28;20201;-62
2024/02/16 04:36:21;;;;;;;1.35;0.80;;;22.90;45.50;;;;;;5092187;28;20182;-61
2024/02/16 04:38:48;;;;;;;0.77;0.60;;;23.00;45.60;;;;;;5092537;28;20182;-61
2024/02/16 04:41:16;;;;;;;0.82;0.60;;;22.90;45.50;;;;;;5092113;28;20273;-62
2024/02/16 04:43:43;;;;;;;1.20;0.70;;;23.00;45.50;;;;;;5092365;28;20201;-62
2024/02/16 04:46:15;;;;;;;1.92;0.80;;;22.90;45.40;;;;;;5092104;28;20228;-63
2024/02/16 04:48:42;;;;;;;2.08;0.90;;;23.00;45.50;;;;;;5091766;28;20190;-61
2024/02/16 04:51:11;;;;;;;1.33;0.65;;;22.90;45.40;;;;;;5092272;28;20286;-61
2024/02/16 04:53:37;;;;;;;1.42;0.90;;;23.00;45.50;;;;;;5091864;28;20210;-61
2024/02/16 04:56:05;;;;;;;2.63;0.73;;;23.00;45.40;;;;;;5092084;28;20194;-61
2024/02/16 04:58:34;;;;;;;1.35;0.80;;;23.00;45.40;;;;;;5092021;28;20214;-61
2024/02/16 05:01:00;;;;;;;1.35;0.82;;;23.00;45.40;;;;;;5092258;28;20194;-61
2024/02/16 05:03:28;;;;;;;1.00;0.73;;;22.90;45.40;;;;;;5092146;28;20301;-61
2024/02/16 05:05:55;;;;;;;1.15;0.60;;;22.90;45.40;;;;;;5091703;28;20228;-61
2024/02/16 05:08:24;;;;;;;1.00;0.63;;;22.90;45.40;;;;;;5084347;28;20336;-61
2024/02/16 05:10:50;;;;;;;2.25;0.80;;;22.90;45.40;;;;;;5090744;28;20285;-61
2024/02/16 05:13:17;;;;;;;1.30;0.80;;;22.90;45.40;;;;;;5090913;28;20209;-64
2024/02/16 05:15:47;;;;;;;0.65;0.50;;;22.90;45.40;;;;;;5090745;28;20678;-64
2024/02/16 05:18:17;;;;;;;0.98;0.73;;;22.90;45.40;;;;;;5090169;28;20235;-62
2024/02/16 05:20:44;;;;;;;1.67;0.82;;;22.90;45.40;;;;;;5091331;28;20187;-61
2024/02/16 05:23:11;;;;;;;1.65;0.68;;;22.90;45.40;;;;;;5090942;28;20217;-61
2024/02/16 05:25:38;;;;;;;1.60;0.70;;;22.90;45.40;;;;;;5090791;28;20214;-61
2024/02/16 05:28:06;;;;;;;0.80;0.70;;;22.90;45.40;;;;;;5091688;28;20216;-61
2024/02/16 05:30:32;;;;;;;1.75;0.70;;;22.90;45.40;;;;;;5091873;28;20295;-61
2024/02/16 05:33:01;;;;;;;1.30;0.60;;;22.90;45.40;;;;;;5091631;28;20643;-61
2024/02/16 05:35:28;;;;;;;1.05;0.55;;;22.90;45.40;;;;;;5091596;28;20634;-61
2024/02/16 05:37:56;;;;;;;1.25;0.80;;;22.90;45.40;;;;;;5091822;28;20217;-61
2024/02/16 05:40:24;;;;;;;2.15;0.70;;;22.90;45.40;;;;;;5091614;28;20272;-64
2024/02/16 05:42:52;;;;;;;2.97;0.60;;;22.90;45.40;;;;;;5091865;28;20222;-61
2024/02/16 05:45:19;;;;;;;0.90;0.60;;;23.00;45.40;;;;;;5091785;28;20301;-61
2024/02/16 05:47:47;;;;;;;3.58;1.02;;;22.90;45.40;;;;;;5091446;28;20221;-62
2024/02/16 05:50:15;;;;;;;2.33;0.88;;;22.90;45.40;;;;;;5091825;28;20190;-61
2024/02/16 05:52:43;;;;;;;2.25;0.70;;;22.90;45.40;;;;;;5091718;28;20467;-62
2024/02/16 05:55:11;;;;;;;1.42;0.80;;;22.90;45.40;;;;;;5091463;28;20182;-64
2024/02/16 05:57:38;;;;;;;1.88;0.80;;;22.90;45.40;;;;;;5091553;28;20310;-63
2024/02/16 06:00:06;;;;;;;2.33;0.90;;;22.90;45.30;;;;;;5091782;28;20290;-62
2024/02/16 06:02:34;;;;;;;2.15;1.00;;;22.90;45.30;;;;;;5094851;28;20301;-61
2024/02/16 06:05:02;;;;;;;4.43;0.80;;;22.90;45.30;;;;;;5095116;28;20232;-61
2024/02/16 06:07:31;;;;;;;2.53;0.95;;;22.90;45.20;;;;;;5090110;28;20226;-61
2024/02/16 06:09:58;;;;;;;1.83;0.75;;;22.90;45.20;;;;;;5094558;28;20289;-61
2024/02/16 06:12:25;;;;;;;2.78;0.77;;;22.90;45.20;;;;;;5094833;28;20226;-61
2024/02/16 06:14:53;;;;;;;2.22;0.80;;;22.90;45.20;;;;;;5094932;28;20281;-61
2024/02/16 06:17:20;;;;;;;2.28;0.98;;;22.90;45.20;;;;;;5094562;28;20306;-61
2024/02/16 06:19:47;;;;;;;5.13;0.90;;;22.90;45.20;;;;;;5094334;28;20676;-62
2024/02/16 06:22:14;;;;;;;2.55;0.93;;;22.90;45.20;;;;;;5094408;28;20318;-61
2024/02/16 06:24:44;;;;;;;2.65;1.00;;;22.90;45.20;;;;;;5092919;28;20186;-62
2024/02/16 06:27:11;;;;;;;2.58;1.05;;;22.90;45.30;;;;;;5094777;28;20257;-61
2024/02/16 06:29:37;;;;;;;2.25;0.80;;;22.90;45.20;;;;;;5094240;28;20312;-61
2024/02/16 06:32:05;;;;;;;3.20;0.80;;;22.90;45.20;;;;;;5094373;28;20305;-61
2024/02/16 06:34:32;;;;;;;2.10;0.90;;;22.90;45.20;;;;;;5094576;28;20263;-62
2024/02/16 06:36:59;;;;;;;2.40;0.82;;;22.90;45.20;;;;;;5094638;28;20214;-61
2024/02/16 06:39:26;;;;;;;1.85;0.77;;;22.90;45.20;;;;;;5093837;28;20196;-61
2024/02/16 06:41:54;;;;;;;1.25;0.70;;;22.90;45.10;;;;;;5093944;28;20304;-61
2024/02/16 06:44:21;;;;;;;3.05;0.95;;;22.90;45.10;;;;;;5094085;28;20190;-61
2024/02/16 06:46:48;;;;;;;3.00;1.02;;;22.90;45.10;;;;;;5093841;28;20210;-61
2024/02/16 06:49:14;;;;;;;2.65;1.10;;;22.90;45.10;;;;;;5093821;28;20183;-64
2024/02/16 06:51:42;;;;;;;3.22;1.08;;;22.90;45.10;;;;;;5094120;28;20277;-64
2024/02/16 06:54:09;;;;;;;4.90;1.10;;;22.90;45.10;;;;;;5094121;28;20197;-61
2024/02/16 06:56:36;;;;;;;3.08;1.10;;;22.90;45.00;;;;;;5094118;28;20595;-61
2024/02/16 06:59:04;;;;;;;5.70;1.30;;;22.90;45.00;;;;;;5093743;28;20190;-61
2024/02/16 07:01:32;;;;;;;3.03;0.95;;;22.90;44.90;;;;;;5093746;28;20190;-62
2024/02/16 07:03:58;;;;;;;2.78;1.05;;;22.90;44.90;;;;;;5093998;28;20193;-61
2024/02/16 07:06:26;;;;;;;4.07;1.20;;;22.90;44.80;;;;;;5093906;28;20305;-64
2024/02/16 07:08:52;;;;;;;3.90;1.10;;;22.90;44.80;;;;;;5088993;28;20221;-64
2024/02/16 07:11:20;;;;;;;5.75;1.40;;;22.90;44.80;;;;;;5073433;28;20190;-61
2024/02/16 07:13:47;;;;;;;3.22;1.13;;;22.90;44.80;;;;;;5090841;28;20221;-61
2024/02/16 07:16:16;;;;;;;4.50;1.13;;;22.90;44.80;;;;;;5093444;28;20463;-62
2024/02/16 07:18:43;;;;;;;5.63;1.23;;;22.90;44.80;;;;;;5093321;28;20218;-61
2024/02/16 07:21:10;;;;;;;3.75;0.90;;;22.90;44.80;;;;;;5093260;28;20716;-61
2024/02/16 07:23:37;;;;;;;3.72;1.10;;;22.90;44.80;;;;;;5092176;28;20730;-62
2024/02/16 07:26:04;;;;;;;3.75;1.40;;;22.90;44.70;;;;;;5090717;28;20656;-62
2024/02/16 07:28:31;;;;;;;3.75;1.10;;;22.90;44.70;;;;;;5088337;28;20337;-62
2024/02/16 07:30:58;;;;;;;3.42;1.30;;;22.90;44.70;;;;;;5092612;28;20288;-62
2024/02/16 07:33:28;;;;;;;4.38;1.08;;;22.90;45.40;;;;;;5092697;28;20680;-64
2024/02/16 07:35:55;;;;;;;3.33;1.25;;;22.90;44.70;;;;;;5085512;28;20205;-61
2024/02/16 07:38:22;;;;;;;4.53;1.35;;;22.80;44.60;;;;;;5076075;28;20214;-62
2024/02/16 07:40:50;;;;;;;3.72;1.17;;;22.90;44.70;;;;;;5080443;28;20190;-63
2024/02/16 07:43:17;;;;;;;5.53;1.35;;;22.90;44.70;;;;;;5091829;28;20695;-61
2024/02/16 07:45:44;;;;;;;4.53;1.25;;;22.80;44.60;;;;;;5086007;28;20240;-62
2024/02/16 07:48:11;;;;;;;5.05;1.20;;;22.80;44.60;;;;;;5078453;28;20210;-60
2024/02/16 07:50:39;;;;;;;3.28;1.17;;;22.80;44.50;;;;;;5077553;28;20596;-63
2024/02/16 07:53:06;;;;;;;5.10;1.23;;;22.80;44.50;;;;;;5088364;28;20338;-64
2024/02/16 07:55:34;;;;;;;3.30;1.23;;;22.90;44.70;;;;;;5088392;28;20186;-64
2024/02/16 07:58:01;;;;;;;5.68;1.20;;;22.90;44.60;;;;;;5089654;28;20223;-64
2024/02/16 08:00:28;;;;;;;4.28;1.13;;;22.90;44.50;;;;;;5088338;28;20186;-62
2024/02/16 08:02:55;;;;;;;3.90;1.38;;;22.90;44.50;;;;;;5054779;28;20221;-61
2024/02/16 08:05:24;;;;;;;6.38;1.27;;;23.00;44.50;;;;;;5081747;28;20309;-61
2024/02/16 08:07:53;;;;;;;4.53;1.42;;;23.00;44.50;;;;;;5077761;28;20283;-62
2024/02/16 08:10:21;;;;;;;2.80;0.95;;;23.00;44.50;;;;;;5087550;28;20191;-64
2024/02/16 08:12:48;;;;;;;5.80;1.40;;;23.00;44.40;;;;;;5089551;28;20225;-64
2024/02/16 08:15:15;;;;;;;8.05;1.50;;;23.00;44.40;;;;;;5089213;28;20186;-64
2024/02/16 08:17:42;;;;;;;5.32;1.58;;;23.00;44.30;;;;;;5089131;28;20236;-64
2024/02/16 08:20:11;;;;;;;5.13;1.25;;;23.10;44.40;;;;;;5087781;28;20209;-65
2024/02/16 08:22:37;;;;;;;7.43;1.58;;;23.00;44.30;;;;;;5090023;28;20222;-64
2024/02/16 08:25:07;;;;;;;6.38;1.60;;;23.00;44.30;;;;;;5090969;28;20635;-64
2024/02/16 08:27:34;;;;;;;5.50;1.30;;;23.00;44.30;;;;;;5091805;28;20300;-64
2024/02/16 08:30:02;;;;;;;4.97;1.38;;;23.00;44.30;;;;;;5090992;28;20312;-64
2024/02/16 08:32:29;;;;;;;4.82;1.40;;;23.00;44.30;;;;;;5091731;28;20214;-64
2024/02/16 08:34:58;;;;;;;8.93;1.45;;;23.00;44.90;;;;;;5090942;28;20281;-64
2024/02/16 08:37:25;;;;;;;5.13;1.70;;;23.00;44.90;;;;;;5090930;28;20776;-65
2024/02/16 08:39:52;;;;;;;9.77;1.75;;;23.00;44.30;;;;;;5091484;28;20260;-63
2024/02/16 08:42:21;;;;;;;8.45;1.67;;;23.00;44.40;;;;;;5088460;28;20668;-64
2024/02/16 08:44:48;;;;;;;6.90;1.67;;;23.10;44.50;;;;;;5076343;28;20201;-65
2024/02/16 08:47:15;;;;;;;4.80;1.55;;;23.10;44.40;;;;;;5091563;28;20233;-64
2024/02/16 08:49:42;;;;;;;4.93;1.80;;;23.10;44.30;;;;;;5089348;28;20618;-64
2024/02/16 08:52:09;;;;;;;5.80;1.45;;;23.10;44.30;;;;;;5104957;28;20315;-64
2024/02/16 08:54:36;;;;;;;5.57;1.50;;;23.10;44.90;;;;;;5107871;28;20189;-64
2024/02/16 08:57:05;;;;;;;6.07;1.30;;;23.10;44.20;;;;;;5110832;28;20186;-64
2024/02/16 08:59:34;;;;;;;7.03;1.60;;;23.10;44.20;;;;;;5070629;28;20721;-65
2024/02/16 09:02:01;;;;;;;4.38;1.48;;;23.10;44.00;;;;;;5086998;28;20186;-65
2024/02/16 09:04:28;;;;;;;6.10;1.63;;;23.10;43.90;;;;;;5089817;28;20192;-65
2024/02/16 09:06:55;;;;;;;7.30;1.83;;;23.10;44.00;;;;;;5086473;28;20308;-63
2024/02/16 09:09:22;;;;;;;8.00;1.85;;;23.20;44.00;;;;;;5088083;28;20190;-65
2024/02/16 09:11:49;;;;;;;6.47;1.50;;;23.10;43.90;;;;;;5088302;28;20205;-66
2024/02/16 09:14:16;;;;;;;3.55;1.35;;;23.20;44.00;;;;;;5090263;28;20181;-66
2024/02/16 09:16:44;;;;;;;3.45;1.42;;;23.20;44.00;;;;;;5091239;28;20187;-64
2024/02/16 09:19:11;;;;;;;5.68;1.60;;;23.20;44.00;;;;;;5091086;28;20300;-63
2024/02/16 09:21:38;;;;;;;10.77;1.90;;;23.20;44.00;;;;;;5090254;28;20196;-64
2024/02/16 09:24:10;;;;;;;4.45;1.35;;;23.20;44.00;;;;;;5091251;28;20657;-62
2024/02/16 09:26:37;;;;;;;7.47;1.40;;;23.10;43.90;;;;;;5090452;28;20221;-65
2024/02/16 09:29:04;;;;;;;7.03;1.70;;;23.20;44.00;;;;;;5090321;28;20232;-63
2024/02/16 09:31:31;;;;;;;7.95;1.70;;;23.10;43.90;;;;;;5089338;28;20202;-64
2024/02/16 09:33:59;;;;;;;7.90;1.77;;;23.10;43.90;;;;;;5080672;28;20388;-63
2024/02/16 09:36:26;;;;;;;7.57;1.85;;;23.10;43.90;;;;;;5079329;28;20460;-64
2024/02/16 09:38:53;;;;;;;5.75;1.25;;;23.10;43.90;;;;;;5087691;28;20309;-63
2024/02/16 09:41:20;;;;;;;10.07;1.75;;;23.10;43.90;;;;;;5080865;28;20190;-62
2024/02/16 09:43:46;;;;;;;8.63;1.63;;;23.10;43.90;;;;;;5081678;28;20236;-66
2024/02/16 09:46:16;;;;;;;8.23;2.10;;;23.10;43.90;;;;;;5071407;28;20237;-67
2024/02/16 09:48:48;;;;;;;10.30;1.70;;;23.20;44.00;;;;;;5082378;28;20226;-65
2024/02/16 09:51:17;;;;;;;10.80;2.20;;;23.20;44.50;;;;;;5084074;28;20224;-65
2024/02/16 09:53:44;;;;;;;9.93;2.15;;;23.20;45.10;;;;;;5079015;28;20707;-64
2024/02/16 09:56:10;;;;;;;6.05;1.90;;;23.30;45.30;;;;;;5078666;28;20292;-68
2024/02/16 09:58:37;;;;;;;10.38;2.13;;;23.30;45.40;;;;;;5074691;28;20229;-64
2024/02/16 10:01:05;;;;;;;13.60;2.38;;;23.40;45.40;;;;;;5055257;28;20199;-63
2024/02/16 10:03:33;;;;;;;8.43;1.90;;;23.50;45.30;;;;;;5077961;28;20228;-63
2024/02/16 10:06:07;;;;;;;9.98;1.98;;;23.60;45.60;;;;;;5077508;28;20214;-66
2024/02/16 10:08:36;;;;;;;13.95;2.25;;;23.60;45.50;;;;;;5076768;28;20217;-64
2024/02/16 10:11:03;;;;;;;18.83;2.40;;;23.70;45.50;;;;;;5077703;28;20227;-65
2024/02/16 10:13:31;;;;;;;9.15;2.20;;;23.70;45.50;;;;;;5064224;28;20551;-63
2024/02/16 10:16:09;;;;;;;11.00;2.20;;;23.70;45.50;;;;;;5074440;28;20190;-62
2024/02/16 10:18:36;;;;;;;11.90;2.03;;;23.70;45.50;;;;;;5081560;28;20217;-63
2024/02/16 10:21:03;;;;;;;9.52;2.45;;;23.60;45.40;;;;;;5080478;28;20210;-63
2024/02/16 10:23:30;;;;;;;12.57;2.03;;;23.60;45.40;;;;;;5079429;28;20636;-62
2024/02/16 10:25:59;;;;;;;16.60;2.28;;;23.60;45.40;;;;;;5081485;28;21235;-62
2024/02/16 10:28:30;;;;;;;8.32;1.95;;;23.60;45.40;;;;;;5077900;28;20774;-63
2024/02/16 10:31:00;;;;;;;9.98;2.60;;;23.50;45.20;;;;;;5068793;28;20389;-64
2024/02/16 10:33:28;;;;;;;24.67;2.80;;;23.40;45.20;;;;;;5070397;28;20217;-63
2024/02/16 10:35:57;;;;;;;10.15;2.53;;;23.40;45.10;;;;;;5061885;28;20186;-62
2024/02/16 10:38:26;;;;;;;14.82;2.75;;;23.40;45.00;;;;;;5074512;28;20493;-64
2024/02/16 10:40:55;;;;;;;18.30;2.40;;;23.40;45.10;;;;;;5077787;28;21070;-64
2024/02/16 10:43:25;;;;;;;11.25;2.50;;;23.40;45.10;;;;;;5080721;28;21020;-64
2024/02/16 10:45:53;;;;;;;13.60;2.42;;;23.40;45.00;;;;;;5065088;28;20595;-62
2024/02/16 10:48:20;;;;;;;10.60;2.53;;;23.40;44.90;;;;;;5081895;28;20220;-64
2024/02/16 10:50:50;;;;;;;13.30;2.65;;;23.40;44.90;;;;;;5076393;28;20393;-61
2024/02/16 10:53:22;;;;;;;11.93;2.88;;;23.40;45.40;;;;;;5081638;28;20249;-61
2024/02/16 10:55:50;;;;;;;13.13;2.88;;;23.40;44.70;;;;;;5072238;28;20205;-61
2024/02/16 10:58:18;;;;;;;14.70;3.20;;;23.40;44.60;;;;;;5075670;28;20915;-60
2024/02/16 11:00:54;;;;;;;12.23;3.15;;;23.40;44.60;;;;;;5074986;28;20194;-63
2024/02/16 11:03:26;;;;;;;10.90;2.90;;;23.40;44.50;;;;;;5077572;28;20483;-63
2024/02/16 11:05:53;;;;;;;11.38;2.90;;;23.40;44.50;;;;;;5078957;28;20190;-61
2024/02/16 11:08:26;;;;;;;9.68;2.88;;;23.40;44.60;;;;;;5070795;28;20325;-65
2024/02/16 11:10:57;;;;;;;12.98;2.78;;;23.40;44.50;;;;;;5086454;28;20193;-65
2024/02/16 11:13:25;;;;;;;14.25;3.22;;;23.40;44.70;;;;;;5088662;28;20253;-66
2024/02/16 11:16:00;;;;;;;10.25;2.97;;;23.40;44.50;;;;;;5088569;28;20194;-67
2024/02/16 11:18:28;;;;;;;8.60;3.15;;;23.40;44.40;;;;;;5089151;28;20221;-67
2024/02/16 11:20:55;;;;;;;12.95;3.10;;;23.40;44.20;;;;;;5088347;28;20197;-68
2024/02/16 11:23:28;;;;;;;12.20;2.88;;;23.40;44.20;;;;;;5089507;28;20218;-67
2024/02/16 11:25:55;;;;;;;8.98;2.65;;;23.40;44.20;;;;;;5088645;28;20190;-68
2024/02/16 11:28:22;;;;;;;11.13;2.50;;;23.40;44.20;;;;;;5088399;28;20237;-67
2024/02/16 11:30:49;;;;;;;10.05;2.35;;;23.30;44.10;;;;;;5088354;28;20190;-66
2024/02/16 11:33:17;;;;;;;8.10;2.75;;;23.30;44.00;;;;;;5088226;28;20252;-66
2024/02/16 11:35:53;;;;;;;11.65;2.78;;;23.30;44.00;;;;;;5086987;28;20233;-66
2024/02/16 11:38:20;;;;;;;14.95;2.83;;;23.30;43.90;;;;;;5088896;28;20214;-68
2024/02/16 11:40:55;;;;;;;12.60;2.80;;;23.30;44.00;;;;;;5088384;28;20259;-68
2024/02/16 11:43:22;;;;;;;9.77;2.33;;;23.30;43.90;;;;;;5088392;28;20795;-68
2024/02/16 11:45:49;;;;;;;11.05;2.70;;;23.20;43.80;;;;;;5088683;28;20192;-66
2024/02/16 11:48:23;;;;;;;9.52;2.25;;;23.30;44.50;;;;;;5087871;28;20237;-68
2024/02/16 11:50:50;;;;;;;5.22;1.83;;;23.30;43.70;;;;;;5087629;28;20547;-67
2024/02/16 11:53:19;;;;;;;9.38;2.22;;;23.30;43.70;;;;;;5087950;28;20222;-67
2024/02/16 11:55:49;;;;;;;9.77;2.40;;;23.30;43.70;;;;;;5087573;28;20209;-67
2024/02/16 11:58:18;;;;;;;8.95;2.47;;;23.30;43.70;;;;;;5087253;28;20229;-68
2024/02/16 12:00:45;;;;;;;5.75;2.05;;;23.30;43.70;;;;;;5088192;28;20574;-67
2024/02/16 12:03:12;;;;;;;7.88;2.28;;;23.30;43.60;;;;;;5088388;28;20201;-67
2024/02/16 12:05:51;;;;;;;7.57;2.40;;;23.30;43.50;;;;;;5087222;28;20194;-66
2024/02/16 12:08:18;;;;;;;9.18;1.90;;;23.30;43.50;;;;;;5087833;28;20240;-67
2024/02/16 12:10:45;;;;;;;7.28;2.53;;;23.30;43.50;;;;;;5088078;28;20233;-67
2024/02/16 12:13:12;;;;;;;5.28;2.20;;;23.30;43.50;;;;;;5087868;28;20278;-67
2024/02/16 12:15:39;;;;;;;4.72;1.75;;;23.30;43.50;;;;;;5088101;28;20194;-65
2024/02/16 12:18:06;;;;;;;6.85;2.10;;;23.40;43.50;;;;;;5088064;28;20319;-66
2024/02/16 12:20:33;;;;;;;6.50;1.83;;;23.40;43.50;;;;;;5087769;28;20301;-67
2024/02/16 12:23:12;;;;;;;8.73;1.92;;;23.40;43.50;;;;;;5067969;28;20301;-67
2024/02/16 12:25:39;;;;;;;7.18;1.80;;;23.40;43.30;;;;;;5080495;28;20190;-67
2024/02/16 12:28:07;;;;;;;9.00;1.88;;;23.40;43.30;;;;;;5087843;28;20218;-68
2024/02/16 12:30:34;;;;;;;6.80;1.85;;;23.40;43.20;;;;;;5087973;28;20192;-67
2024/02/16 12:33:02;;;;;;;7.13;1.77;;;23.40;43.20;;;;;;5088038;28;20602;-66
2024/02/16 12:35:29;;;;;;;5.63;1.90;;;23.40;43.20;;;;;;5087275;28;20201;-67
2024/02/16 12:37:57;;;;;;;13.73;2.00;;;23.50;43.20;;;;;;5087753;28;20193;-68
2024/02/16 12:40:26;;;;;;;5.88;1.83;;;23.50;43.20;;;;;;5088081;28;20218;-67
2024/02/16 12:42:53;;;;;;;6.28;1.63;;;23.50;43.10;;;;;;5087672;28;20671;-67
2024/02/16 12:45:20;;;;;;;6.72;1.88;;;23.50;43.10;;;;;;5087235;28;20214;-67
2024/02/16 12:47:47;;;;;;;8.55;1.75;;;23.50;43.10;;;;;;5083110;28;20218;-66